createdAt,value
2022-12-16T00:00:27.707Z,5.55
2022-12-16T00:02:29.430Z,5.63
2022-12-16T00:04:31.032Z,5.34
2022-12-16T00:06:34.190Z,5.45
2022-12-16T00:08:38.203Z,5.48
2022-12-16T00:10:57.412Z,5.55
2022-12-16T00:12:59.290Z,5.49
2022-12-16T00:15:00.867Z,5.46
2022-12-16T00:17:02.537Z,5.52
2022-12-16T00:19:04.256Z,5.57
2022-12-16T00:21:06.686Z,5.63
2022-12-16T00:23:08.308Z,5.69
2022-12-16T00:25:09.930Z,5.59
2022-12-16T00:27:11.494Z,5.49
2022-12-16T00:29:13.091Z,5.54
2022-12-16T00:31:14.787Z,5.56
2022-12-16T00:33:16.871Z,5.70
2022-12-16T00:35:18.504Z,5.74
2022-12-16T00:37:20.338Z,5.79
2022-12-16T00:39:21.969Z,5.84
2022-12-16T00:41:23.612Z,5.91
2022-12-16T00:43:25.317Z,6.01
2022-12-16T00:45:27.550Z,6.04
2022-12-16T00:47:29.198Z,5.80
2022-12-16T00:49:30.993Z,5.72
2022-12-16T00:51:32.632Z,5.39
2022-12-16T00:53:36.128Z,5.19
2022-12-16T00:55:37.939Z,5.24
2022-12-16T00:57:39.770Z,5.05
2022-12-16T00:59:41.428Z,5.15
2022-12-16T01:01:43.640Z,5.12
2022-12-16T01:03:45.520Z,5.07
2022-12-16T01:05:47.212Z,5.17
2022-12-16T01:07:48.882Z,5.20
2022-12-16T01:09:50.502Z,5.04
2022-12-16T01:11:53.485Z,5.02
2022-12-16T01:13:56.609Z,5.04
2022-12-16T01:16:01.753Z,5.04
2022-12-16T01:18:03.346Z,5.14
2022-12-16T01:20:05.670Z,5.22
2022-12-16T01:22:07.374Z,5.23
2022-12-16T01:24:11.123Z,5.30
2022-12-16T01:26:16.665Z,5.45
2022-12-16T01:28:18.551Z,5.20
2022-12-16T01:30:20.439Z,5.21
2022-12-16T01:32:22.618Z,5.14
2022-12-16T01:34:24.734Z,5.13
2022-12-16T01:36:26.606Z,5.10
2022-12-16T01:38:28.866Z,5.12
2022-12-16T01:40:30.735Z,4.71
2022-12-16T01:42:33.703Z,4.82
2022-12-16T01:44:35.370Z,4.99
2022-12-16T01:46:38.660Z,5.16
2022-12-16T01:48:58.985Z,5.30
2022-12-16T01:51:07.762Z,5.39
2022-12-16T01:53:10.190Z,5.48
2022-12-16T01:55:25.154Z,5.60
2022-12-16T01:57:32.349Z,5.60
2022-12-16T01:59:36.290Z,5.58
2022-12-16T02:01:38.002Z,5.61
2022-12-16T02:03:39.983Z,5.33
2022-12-16T02:05:43.100Z,5.33
2022-12-16T02:07:44.842Z,5.39
2022-12-16T02:09:46.587Z,5.13
2022-12-16T02:12:30.236Z,5.19
2022-12-16T02:14:38.063Z,5.18
2022-12-16T02:16:49.203Z,5.18
2022-12-16T02:18:57.004Z,5.22
2022-12-16T02:21:23.492Z,5.36
2022-12-16T02:23:34.672Z,5.46
2022-12-16T02:25:54.800Z,5.55
2022-12-16T02:28:09.303Z,5.66
2022-12-16T02:30:19.738Z,5.68
2022-12-16T02:32:21.342Z,5.45
2022-12-16T02:34:50.670Z,5.48
2022-12-16T02:37:16.412Z,5.55
2022-12-16T02:39:23.142Z,5.52
2022-12-16T02:41:43.729Z,5.46
2022-12-16T02:44:05.074Z,4.96
2022-12-16T02:46:07.758Z,5.03
2022-12-16T02:48:10.087Z,4.57
2022-12-16T02:50:18.957Z,4.69
2022-12-16T02:52:31.802Z,4.88
2022-12-16T02:54:33.466Z,5.08
2022-12-16T02:56:59.259Z,5.14
2022-12-16T02:59:18.572Z,5.30
2022-12-16T03:01:27.587Z,4.95
2022-12-16T03:03:41.077Z,4.99
2022-12-16T03:05:48.413Z,5.11
2022-12-16T03:07:51.499Z,5.19
2022-12-16T03:09:54.104Z,5.33
2022-12-16T03:11:57.058Z,5.44
2022-12-16T03:14:00.416Z,5.47
2022-12-16T03:16:03.901Z,5.53
2022-12-16T03:18:08.687Z,5.59
2022-12-16T03:20:15.363Z,5.60
2022-12-16T03:22:20.593Z,5.57
2022-12-16T03:24:22.471Z,5.62
2022-12-16T03:26:30.979Z,5.64
2022-12-16T03:28:46.234Z,5.50
2022-12-16T03:30:55.793Z,5.38
2022-12-16T03:33:23.040Z,5.47
2022-12-16T03:35:35.928Z,5.39
2022-12-16T03:37:38.724Z,5.47
2022-12-16T03:39:44.348Z,5.54
2022-12-16T03:41:47.668Z,5.49
2022-12-16T03:43:49.809Z,5.24
2022-12-16T03:45:53.690Z,4.90
2022-12-16T03:47:57.119Z,4.81
2022-12-16T03:49:58.807Z,4.32
2022-12-16T03:52:00.472Z,4.46
2022-12-16T03:54:02.283Z,4.65
2022-12-16T03:56:04.145Z,4.82
2022-12-16T03:58:05.822Z,4.92
2022-12-16T04:00:08.226Z,5.04
2022-12-16T04:02:10.246Z,5.20
2022-12-16T04:04:12.285Z,5.27
2022-12-16T04:06:18.596Z,5.38
2022-12-16T04:08:20.338Z,5.43
2022-12-16T04:10:41.886Z,5.50
2022-12-16T04:13:02.374Z,5.51
2022-12-16T04:15:23.769Z,5.58
2022-12-16T04:17:44.318Z,5.65
2022-12-16T04:20:04.859Z,5.67
2022-12-16T04:22:32.804Z,5.69
2022-12-16T04:24:35.186Z,5.72
2022-12-16T04:26:56.884Z,5.75
2022-12-16T04:28:58.533Z,5.78
2022-12-16T04:31:00.340Z,5.85
2022-12-16T04:33:30.379Z,5.88
2022-12-16T04:35:51.172Z,5.88
2022-12-16T04:38:11.197Z,5.70
2022-12-16T04:40:31.701Z,5.73
2022-12-16T04:42:52.041Z,5.84
2022-12-16T04:45:12.728Z,5.98
2022-12-16T04:47:33.092Z,6.03
2022-12-16T04:49:53.457Z,6.07
2022-12-16T04:52:13.126Z,6.11
2022-12-16T04:54:32.897Z,6.17
2022-12-16T04:56:53.008Z,6.18
2022-12-16T04:59:13.322Z,6.09
2022-12-16T05:01:33.348Z,5.98
2022-12-16T05:03:53.919Z,5.56
2022-12-16T05:06:14.426Z,5.58
2022-12-16T05:08:34.813Z,5.59
2022-12-16T05:10:54.802Z,5.68
2022-12-16T05:13:15.176Z,5.81
2022-12-16T05:15:35.618Z,5.88
2022-12-16T05:17:55.898Z,5.96
2022-12-16T05:20:15.936Z,5.96
2022-12-16T05:22:36.285Z,6.03
2022-12-16T05:24:56.544Z,5.98
2022-12-16T05:27:16.461Z,5.59
2022-12-16T05:29:36.775Z,5.38
2022-12-16T05:31:57.183Z,5.31
2022-12-16T05:34:17.903Z,5.37
2022-12-16T05:36:38.326Z,5.25
2022-12-16T05:38:58.189Z,5.38
2022-12-16T05:41:18.323Z,5.43
2022-12-16T05:43:38.478Z,5.55
2022-12-16T05:45:59.460Z,5.69
2022-12-16T05:48:19.671Z,5.73
2022-12-16T05:50:40.237Z,5.67
2022-12-16T05:53:00.193Z,5.52
2022-12-16T05:55:20.393Z,5.59
2022-12-16T05:57:40.676Z,5.71
2022-12-16T06:00:01.109Z,5.82
2022-12-16T06:02:21.220Z,5.94
2022-12-16T06:04:41.204Z,5.99
2022-12-16T06:07:01.170Z,5.69
2022-12-16T06:09:21.820Z,5.45
2022-12-16T06:11:41.850Z,5.47
2022-12-16T06:14:02.038Z,5.60
2022-12-16T06:16:22.485Z,5.57
2022-12-16T06:18:42.366Z,5.56
2022-12-16T06:21:02.671Z,5.45
2022-12-16T06:23:25.563Z,5.55
2022-12-16T06:25:46.242Z,5.65
2022-12-16T06:28:12.617Z,5.74
2022-12-16T06:30:33.046Z,5.71
2022-12-16T06:32:53.372Z,5.52
2022-12-16T06:35:13.813Z,5.56
2022-12-16T06:37:34.205Z,5.40
2022-12-16T06:39:54.629Z,5.14
2022-12-16T06:42:14.494Z,5.27
2022-12-16T06:44:34.776Z,5.32
2022-12-16T06:46:54.703Z,5.12
2022-12-16T06:49:14.546Z,5.02
2022-12-16T06:51:48.633Z,4.80
2022-12-16T06:54:09.167Z,4.88
2022-12-16T06:56:29.502Z,4.77
2022-12-16T06:58:50.091Z,4.93
2022-12-16T07:01:10.706Z,4.89
2022-12-16T07:03:35.542Z,5.00
2022-12-16T07:05:56.197Z,5.07
2022-12-16T07:08:16.597Z,5.27
2022-12-16T07:10:36.909Z,5.14
2022-12-16T07:12:57.226Z,4.95
2022-12-16T07:15:17.862Z,5.05
2022-12-16T07:17:38.072Z,5.19
2022-12-16T07:19:58.505Z,5.33
2022-12-16T07:22:18.915Z,5.51
2022-12-16T07:24:38.772Z,5.17
2022-12-16T07:26:58.692Z,5.23
2022-12-16T07:29:19.007Z,5.43
2022-12-16T07:31:39.517Z,5.28
2022-12-16T07:34:00.130Z,5.36
2022-12-16T07:36:20.653Z,5.47
2022-12-16T07:38:40.853Z,5.56
2022-12-16T07:41:01.446Z,5.67
2022-12-16T07:43:21.405Z,5.69
2022-12-16T07:45:45.156Z,5.78
2022-12-16T07:48:07.530Z,5.86
2022-12-16T07:50:28.983Z,5.96
2022-12-16T07:52:48.999Z,5.83
2022-12-16T07:55:23.266Z,5.83
2022-12-16T07:57:43.273Z,5.84
2022-12-16T08:00:03.611Z,5.84
2022-12-16T08:02:24.125Z,5.62
2022-12-16T08:04:44.507Z,5.65
2022-12-16T08:07:05.109Z,5.69
2022-12-16T08:09:25.176Z,5.77
2022-12-16T08:11:45.064Z,5.45
2022-12-16T08:14:05.177Z,5.57
2022-12-16T08:16:25.787Z,5.32
2022-12-16T08:18:46.068Z,5.38
2022-12-16T08:21:06.107Z,5.47
2022-12-16T08:23:26.002Z,5.69
2022-12-16T08:25:46.435Z,5.80
2022-12-16T08:28:12.806Z,5.82
2022-12-16T08:30:37.917Z,5.64
2022-12-16T08:33:00.711Z,5.86
2022-12-16T08:35:25.692Z,6.05
2022-12-16T08:37:45.584Z,6.13
2022-12-16T08:40:34.776Z,6.14
2022-12-16T08:42:57.795Z,6.15
2022-12-16T08:45:18.244Z,6.24
2022-12-16T08:47:38.413Z,6.30
2022-12-16T08:50:01.640Z,6.34
2022-12-16T08:52:23.008Z,6.04
2022-12-16T08:54:43.016Z,5.94
2022-12-16T08:57:03.291Z,6.12
2022-12-16T08:59:23.824Z,6.38
2022-12-16T09:01:43.916Z,6.72
2022-12-16T09:04:04.204Z,6.91
2022-12-16T09:06:24.631Z,7.02
2022-12-16T09:08:45.021Z,6.72
2022-12-16T09:11:05.247Z,6.82
2022-12-16T09:13:31.258Z,6.85
2022-12-16T09:15:51.845Z,7.00
2022-12-16T09:18:13.487Z,7.17
2022-12-16T09:20:33.734Z,7.17
2022-12-16T09:22:54.205Z,7.28
2022-12-16T09:25:15.261Z,7.38
2022-12-16T09:27:35.069Z,7.24
2022-12-16T09:29:55.456Z,7.44
2022-12-16T09:32:16.086Z,7.51
2022-12-16T09:34:36.465Z,7.53
2022-12-16T09:36:56.935Z,7.59
2022-12-16T09:39:17.073Z,7.43
2022-12-16T09:41:41.209Z,7.58
2022-12-16T09:44:07.775Z,7.57
2022-12-16T09:46:48.264Z,7.75
2022-12-16T09:50:02.212Z,7.62
2022-12-16T09:52:23.278Z,7.93
2022-12-16T09:54:45.847Z,7.77
2022-12-16T09:57:06.663Z,7.84
2022-12-16T09:59:32.842Z,7.26
2022-12-16T10:01:55.601Z,7.62
2022-12-16T10:04:16.617Z,7.73
2022-12-16T10:07:03.418Z,7.33
2022-12-16T10:09:39.986Z,7.36
2022-12-16T10:12:29.383Z,7.49
2022-12-16T10:14:56.148Z,7.92
2022-12-16T10:17:31.708Z,8.27
2022-12-16T10:20:33.391Z,8.14
2022-12-16T10:23:23.160Z,8.36
2022-12-16T10:25:47.943Z,8.85
2022-12-16T10:28:08.639Z,9.20
2022-12-16T10:30:31.677Z,9.39
2022-12-16T10:32:54.095Z,9.58
2022-12-16T10:35:14.225Z,9.82
2022-12-16T10:37:57.773Z,9.94
2022-12-16T10:40:18.931Z,9.90
2022-12-16T10:42:48.084Z,9.91
2022-12-16T10:45:14.380Z,9.68
2022-12-16T10:47:34.458Z,9.20
2022-12-16T10:49:55.065Z,9.40
2022-12-16T10:52:15.693Z,9.49
2022-12-16T10:54:38.751Z,9.76
2022-12-16T10:57:28.308Z,9.90
2022-12-16T10:59:54.133Z,9.66
2022-12-16T11:02:15.651Z,9.70
2022-12-16T11:04:49.726Z,9.94
2022-12-16T11:07:09.666Z,9.84
2022-12-16T11:09:41.905Z,9.86
2022-12-16T11:12:01.805Z,9.86
2022-12-16T11:14:34.961Z,10.12
2022-12-16T11:16:55.372Z,10.47
2022-12-16T11:19:16.707Z,10.55
2022-12-16T11:21:39.082Z,10.61
2022-12-16T11:23:59.572Z,10.74
2022-12-16T11:26:37.522Z,10.63
2022-12-16T11:28:58.132Z,10.97
2022-12-16T11:31:25.276Z,11.18
2022-12-16T11:33:47.045Z,11.45
2022-12-16T11:36:11.985Z,11.76
2022-12-16T11:39:02.631Z,11.90
2022-12-16T11:41:22.896Z,11.81
2022-12-16T11:43:44.132Z,12.03
2022-12-16T11:46:04.601Z,12.24
2022-12-16T11:48:31.542Z,12.27
2022-12-16T11:50:55.435Z,12.40
2022-12-16T11:53:16.203Z,12.45
2022-12-16T11:56:04.125Z,11.59
2022-12-16T11:58:21.605Z,11.65
2022-12-16T12:00:42.285Z,11.91
2022-12-16T12:03:25.168Z,12.23
2022-12-16T12:06:15.126Z,12.25
2022-12-16T12:08:48.307Z,12.41
2022-12-16T12:11:30.887Z,12.38
2022-12-16T12:14:09.975Z,12.32
2022-12-16T12:17:03.840Z,12.39
2022-12-16T12:20:05.517Z,12.43
2022-12-16T12:22:53.950Z,12.41
2022-12-16T12:25:29.129Z,12.52
2022-12-16T12:28:08.259Z,12.60
2022-12-16T12:30:38.529Z,12.72
2022-12-16T12:33:52.371Z,12.69
2022-12-16T12:36:38.473Z,12.68
2022-12-16T12:39:33.788Z,12.60
2022-12-16T12:42:23.204Z,12.57
2022-12-16T12:44:49.078Z,12.62
2022-12-16T12:47:29.237Z,12.69
2022-12-16T12:50:10.369Z,12.76
2022-12-16T12:52:52.055Z,12.63
2022-12-16T12:55:49.133Z,12.58
2022-12-16T12:58:10.835Z,12.73
2022-12-16T13:00:39.979Z,12.86
2022-12-16T13:03:11.142Z,13.01
2022-12-16T13:05:32.769Z,13.03
2022-12-16T13:08:00.628Z,13.03
2022-12-16T13:10:39.382Z,12.89
2022-12-16T13:12:59.894Z,12.88
2022-12-16T13:15:27.448Z,12.95
2022-12-16T13:17:47.293Z,13.02
2022-12-16T13:20:14.960Z,12.96
2022-12-16T13:23:04.983Z,12.77
2022-12-16T13:25:49.376Z,12.77
2022-12-16T13:28:14.816Z,12.76
2022-12-16T13:30:34.991Z,12.72
2022-12-16T13:32:56.398Z,12.72
2022-12-16T13:35:21.121Z,12.74
2022-12-16T13:37:43.617Z,12.75
2022-12-16T13:40:18.652Z,12.75
2022-12-16T13:42:57.825Z,12.61
2022-12-16T13:45:18.557Z,12.51
2022-12-16T13:48:10.977Z,12.53
2022-12-16T13:50:59.924Z,12.53
2022-12-16T13:53:22.527Z,12.46
2022-12-16T13:55:54.841Z,12.49
2022-12-16T13:58:21.709Z,12.40
2022-12-16T14:00:44.345Z,12.43
2022-12-16T14:03:04.927Z,12.48
2022-12-16T14:05:38.835Z,12.54
2022-12-16T14:07:59.696Z,12.53
2022-12-16T14:10:20.016Z,12.48
2022-12-16T14:13:02.093Z,12.37
2022-12-16T14:15:43.292Z,12.32
2022-12-16T14:18:18.687Z,12.40
2022-12-16T14:21:00.591Z,12.43
2022-12-16T14:23:57.290Z,12.44
2022-12-16T14:26:17.433Z,12.38
2022-12-16T14:28:52.416Z,12.42
2022-12-16T14:31:21.513Z,12.42
2022-12-16T14:33:47.609Z,12.42
2022-12-16T14:36:08.972Z,12.41
2022-12-16T14:38:48.612Z,12.26
2022-12-16T14:41:09.972Z,12.11
2022-12-16T14:43:47.997Z,12.10
2022-12-16T14:46:08.830Z,12.14
2022-12-16T14:48:53.399Z,12.14
2022-12-16T14:51:13.660Z,12.03
2022-12-16T14:53:42.520Z,12.01
2022-12-16T14:56:02.782Z,12.03
2022-12-16T14:58:28.938Z,12.05
2022-12-16T15:00:49.261Z,11.98
2022-12-16T15:03:10.139Z,11.96
2022-12-16T15:05:30.922Z,11.97
2022-12-16T15:07:54.716Z,11.80
2022-12-16T15:10:16.637Z,11.85
2022-12-16T15:12:39.746Z,11.81
2022-12-16T15:15:04.656Z,11.86
2022-12-16T15:17:24.794Z,11.90
2022-12-16T15:19:45.055Z,11.85
2022-12-16T15:22:06.484Z,11.77
2022-12-16T15:24:45.250Z,11.83
2022-12-16T15:27:05.260Z,11.75
2022-12-16T15:29:48.578Z,11.52
2022-12-16T15:32:11.786Z,11.58
2022-12-16T15:34:47.401Z,11.54
2022-12-16T15:37:07.866Z,11.54
2022-12-16T15:39:45.793Z,11.54
2022-12-16T15:42:13.726Z,11.46
2022-12-16T15:44:44.170Z,11.39
2022-12-16T15:47:06.345Z,11.21
2022-12-16T15:49:41.123Z,11.31
2022-12-16T15:52:04.544Z,11.21
2022-12-16T15:54:24.840Z,11.18
2022-12-16T15:57:05.473Z,10.81
2022-12-16T15:59:43.443Z,10.99
2022-12-16T16:02:05.281Z,11.06
2022-12-16T16:04:54.940Z,11.09
2022-12-16T16:07:15.340Z,11.04
2022-12-16T16:09:41.015Z,11.11
2022-12-16T16:12:01.485Z,10.88
2022-12-16T16:14:21.606Z,10.96
2022-12-16T16:16:42.098Z,11.04
2022-12-16T16:19:02.463Z,10.99
2022-12-16T16:21:22.950Z,11.03
2022-12-16T16:23:42.821Z,11.09
2022-12-16T16:26:04.353Z,11.04
2022-12-16T16:28:24.536Z,11.03
2022-12-16T16:30:44.768Z,11.01
2022-12-16T16:33:05.274Z,11.05
2022-12-16T16:35:25.772Z,11.06
2022-12-16T16:37:46.305Z,11.07
2022-12-16T16:40:06.759Z,11.03
2022-12-16T16:42:28.830Z,10.80
2022-12-16T16:44:49.366Z,10.76
2022-12-16T16:47:09.703Z,10.82
2022-12-16T16:49:31.468Z,10.85
2022-12-16T16:51:51.342Z,10.80
2022-12-16T16:54:14.522Z,10.56
2022-12-16T16:56:34.866Z,10.54
2022-12-16T16:58:55.170Z,10.43
2022-12-16T17:01:15.876Z,10.36
2022-12-16T17:03:36.929Z,10.39
2022-12-16T17:05:57.861Z,10.43
2022-12-16T17:08:18.170Z,10.44
2022-12-16T17:10:38.068Z,10.45
2022-12-16T17:13:04.435Z,10.50
2022-12-16T17:15:43.013Z,10.31
2022-12-16T17:18:03.355Z,10.27
2022-12-16T17:20:23.809Z,10.22
2022-12-16T17:22:44.250Z,10.23
2022-12-16T17:25:04.817Z,10.26
2022-12-16T17:27:33.109Z,10.21
2022-12-16T17:29:53.283Z,10.01
2022-12-16T17:32:30.418Z,10.05
2022-12-16T17:34:50.800Z,10.04
2022-12-16T17:37:12.921Z,10.09
2022-12-16T17:39:33.280Z,9.95
2022-12-16T17:41:53.756Z,9.93
2022-12-16T17:44:14.263Z,9.98
2022-12-16T17:46:34.333Z,9.90
2022-12-16T17:48:54.283Z,9.88
2022-12-16T17:51:14.664Z,9.72
2022-12-16T17:53:35.492Z,9.73
2022-12-16T17:55:55.786Z,9.82
2022-12-16T17:58:16.099Z,9.66
2022-12-16T18:00:36.640Z,9.67
2022-12-16T18:02:56.984Z,9.71
2022-12-16T18:05:17.190Z,9.76
2022-12-16T18:07:37.274Z,9.91
2022-12-16T18:09:57.732Z,9.98
2022-12-16T18:12:18.238Z,10.05
2022-12-16T18:14:38.643Z,10.08
2022-12-16T18:16:58.588Z,9.93
2022-12-16T18:19:19.032Z,9.93
2022-12-16T18:21:39.502Z,9.84
2022-12-16T18:24:02.886Z,9.81
2022-12-16T18:26:26.347Z,9.83
2022-12-16T18:28:46.830Z,9.71
